Bungo Princess — 3FXV8 — position and weather

sailwx.info

Track history (hours):
 
Tides and Currents Weather Stations Pressure Air Temp Water Temp Dewpoint Dewpoint Depression Visibility Wind Speed Wind Dir Waves Ship Positions

Bungo Princess

Last reported at 2014-Oct-14 12:33 UTC. Time now 2014-Oct-21 03:55 UTC.
Position N 22°20' E 114°05'.

Length 103 m; draft 5.4 m.

Type: Cargo ship. MMSI: 355091000.

Date/timePositionNaut miles runAvg speedWind from/ knotsBaromVisibWave heightAir tempDewpointWater temp
2014-Oct-14 12:33N 22°20' E 114°05'1110.4
2014-Oct-14 11:31N 22°23' E 113°54'7 6.6
2014-Oct-14 10:27N 22°30' E 113°52'0 0.0
2014-Oct-14 09:32N 22°30' E 113°52'0 0.0
2014-Oct-14 08:26N 22°30' E 113°52'0 0.0
2014-Oct-14 07:26N 22°30' E 113°52'0 0.0
2014-Oct-14 06:32N 22°30' E 113°52'0 0.0
2014-Oct-14 05:32N 22°30' E 113°52'0 0.0
2014-Oct-14 04:20N 22°30' E 113°52'0 0.0
2014-Oct-14 03:32N 22°30' E 113°52'0 0.0
2014-Oct-14 02:32N 22°30' E 113°52'0 0.0
2014-Oct-14 01:32N 22°30' E 113°52'0 0.0
2014-Oct-14 00:32N 22°30' E 113°52'1 0.1
2014-Oct-13 13:19N 22°29' E 113°52'7 9.1
2014-Oct-13 12:33N 22°22' E 113°54'10 9.8
2014-Oct-13 11:33N 22°20' E 114°05'2 0.2
2014-Oct-13 03:05N 22°18' E 114°04'16 2.4
2014-Oct-12 20:33N 22°05' E 113°55'9 8.8
2014-Oct-12 19:34N 22°10' E 113°47'1211.8
2014-Oct-12 18:34N 22°22' E 113°47'2311.6
2014-Oct-12 16:32N 22°45' E 113°39'8 8.5
2014-Oct-12 15:33N 22°52' E 113°34'5 5.2
2014-Oct-12 14:33N 22°57' E 113°33'5 5.2
2014-Oct-12 13:33N 23°02' E 113°31'1 1.4
2014-Oct-12 12:33N 23°03' E 113°31'0 0.0
2014-Oct-12 11:26N 23°03' E 113°31'0 0.0
2014-Oct-12 10:32N 23°03' E 113°31'0 0.0
2014-Oct-12 09:32N 23°03' E 113°31'0 0.0
2014-Oct-12 08:32N 23°03' E 113°31'0 0.0
2014-Oct-12 07:26N 23°03' E 113°31'0 0.0
2014-Oct-12 06:26N 23°03' E 113°31'0 0.0
2014-Oct-12 05:26N 23°03' E 113°31'0 0.0
2014-Oct-12 04:26N 23°03' E 113°31'0 0.0
2014-Oct-12 03:32N 23°03' E 113°31'0 0.0
2014-Oct-12 02:14N 23°03' E 113°31'0 0.0
2014-Oct-12 01:32N 23°03' E 113°31'0 0.0
2014-Oct-12 00:32N 23°03' E 113°31'0 0.0
2014-Oct-11 23:32N 23°03' E 113°31'0 0.0
2014-Oct-11 22:32N 23°03' E 113°31'0 0.0
2014-Oct-11 21:26N 23°03' E 113°31'0 0.0
2014-Oct-11 20:26N 23°03' E 113°31'0 0.0
2014-Oct-11 19:32N 23°03' E 113°31'0 0.0
2014-Oct-11 18:32N 23°03' E 113°31'4 4.5
2014-Oct-11 17:33N 22°59' E 113°32'9 8.3
2014-Oct-11 16:30N 22°50' E 113°35'10 9.7
2014-Oct-11 15:28N 22°42' E 113°41'1212.4
2014-Oct-11 14:30N 22°31' E 113°45'1313.6
2014-Oct-11 13:33N 22°18' E 113°48'1111.3
2014-Oct-11 12:33N 22°07' E 113°49'  
Track history (hours):
 
Tides and Currents Weather Stations Pressure Air Temp Water Temp Dewpoint Dewpoint Depression Visibility Wind Speed Wind Dir Waves Ship Positions

Bungo Princess

Last reported at 2014-Oct-14 12:33 UTC. Time now 2014-Oct-21 03:55 UTC.
Position N 22°20' E 114°05'.

Length 103 m; draft 5.4 m.

Type: Cargo ship. MMSI: 355091000.

Date/timePositionNaut miles runAvg speedWind from/ knotsBaromVisibWave heightAir tempDewpointWater temp
2014-Oct-14 12:33N 22°20' E 114°05'1110.4
2014-Oct-14 11:31N 22°23' E 113°54'7 6.6
2014-Oct-14 10:27N 22°30' E 113°52'0 0.0
2014-Oct-14 09:32N 22°30' E 113°52'0 0.0
2014-Oct-14 08:26N 22°30' E 113°52'0 0.0
2014-Oct-14 07:26N 22°30' E 113°52'0 0.0
2014-Oct-14 06:32N 22°30' E 113°52'0 0.0
2014-Oct-14 05:32N 22°30' E 113°52'0 0.0
2014-Oct-14 04:20N 22°30' E 113°52'0 0.0
2014-Oct-14 03:32N 22°30' E 113°52'0 0.0
2014-Oct-14 02:32N 22°30' E 113°52'0 0.0
2014-Oct-14 01:32N 22°30' E 113°52'0 0.0
2014-Oct-14 00:32N 22°30' E 113°52'1 0.1
2014-Oct-13 13:19N 22°29' E 113°52'7 9.1
2014-Oct-13 12:33N 22°22' E 113°54'10 9.8
2014-Oct-13 11:33N 22°20' E 114°05'2 0.2
2014-Oct-13 03:05N 22°18' E 114°04'16 2.4
2014-Oct-12 20:33N 22°05' E 113°55'9 8.8
2014-Oct-12 19:34N 22°10' E 113°47'1211.8
2014-Oct-12 18:34N 22°22' E 113°47'2311.6
2014-Oct-12 16:32N 22°45' E 113°39'8 8.5
2014-Oct-12 15:33N 22°52' E 113°34'5 5.2
2014-Oct-12 14:33N 22°57' E 113°33'5 5.2
2014-Oct-12 13:33N 23°02' E 113°31'1 1.4
2014-Oct-12 12:33N 23°03' E 113°31'0 0.0
2014-Oct-12 11:26N 23°03' E 113°31'0 0.0
2014-Oct-12 10:32N 23°03' E 113°31'0 0.0
2014-Oct-12 09:32N 23°03' E 113°31'0 0.0
2014-Oct-12 08:32N 23°03' E 113°31'0 0.0
2014-Oct-12 07:26N 23°03' E 113°31'0 0.0
2014-Oct-12 06:26N 23°03' E 113°31'0 0.0
2014-Oct-12 05:26N 23°03' E 113°31'0 0.0
2014-Oct-12 04:26N 23°03' E 113°31'0 0.0
2014-Oct-12 03:32N 23°03' E 113°31'0 0.0
2014-Oct-12 02:14N 23°03' E 113°31'0 0.0
2014-Oct-12 01:32N 23°03' E 113°31'0 0.0
2014-Oct-12 00:32N 23°03' E 113°31'0 0.0
2014-Oct-11 23:32N 23°03' E 113°31'0 0.0
2014-Oct-11 22:32N 23°03' E 113°31'0 0.0
2014-Oct-11 21:26N 23°03' E 113°31'0 0.0
2014-Oct-11 20:26N 23°03' E 113°31'0 0.0
2014-Oct-11 19:32N 23°03' E 113°31'0 0.0
2014-Oct-11 18:32N 23°03' E 113°31'4 4.5
2014-Oct-11 17:33N 22°59' E 113°32'9 8.3
2014-Oct-11 16:30N 22°50' E 113°35'10 9.7
2014-Oct-11 15:28N 22°42' E 113°41'1212.4
2014-Oct-11 14:30N 22°31' E 113°45'1313.6
2014-Oct-11 13:33N 22°18' E 113°48'1111.3
2014-Oct-11 12:33N 22°07' E 113°49'  

Dump ship's entire track history